< Typhoon 196418 1964 Season Typhoon 196420 >
Typhoon 196419 (TILDA)
General InformationTrack Information on Google Maps || Disaster Info.ResourceGoogle EarthGE AnimationAtom FeedGeoJSON
Detalied Best Track (Time Zone = UTC)
Year Month Day Hour Lat. Long. Pressure (hPa) Wind (kt) Class Image Chart
1964 9 12 00 16.7 140.6 1006 0 2 -- Chart
1964 9 12 06 17.1 138.8 1004 0 2 -- Chart
1964 9 12 12 17.5 137.0 1004 0 2 -- Chart
1964 9 12 18 17.8 135.1 1004 0 2 -- Chart
1964 9 13 00 18.0 133.3 1002 0 2 -- Chart
1964 9 13 06 18.4 131.7 1000 0 2 -- Chart
1964 9 13 12 19.0 129.7 996 0 2 -- Chart
1964 9 13 18 19.5 127.6 994 0 2 -- Chart
1964 9 14 00 20.1 125.7 990 0 9 -- Chart
1964 9 14 06 20.4 123.8 990 0 9 -- Chart
1964 9 14 12 20.8 122.1 990 0 9 -- Chart
1964 9 14 18 20.9 120.8 990 0 9 -- Chart
1964 9 15 00 21.2 119.5 990 0 9 -- Chart
1964 9 15 06 21.3 118.3 992 0 9 -- Chart
1964 9 15 12 21.3 117.6 992 0 9 -- Chart
1964 9 15 18 21.3 116.9 995 0 9 -- Chart
1964 9 16 00 21.2 115.9 995 0 9 -- Chart
1964 9 16 06 21.0 115.2 990 0 9 -- Chart
1964 9 16 12 20.8 114.9 990 0 9 -- Chart
1964 9 16 18 20.7 114.5 995 0 9 -- Chart
1964 9 17 00 20.6 114.4 995 0 9 -- Chart
1964 9 17 06 20.2 114.1 995 0 9 -- Chart
1964 9 17 12 20.0 114.5 995 0 9 -- Chart
1964 9 17 18 19.8 115.0 996 0 9 -- Chart
1964 9 18 00 19.5 115.5 996 0 9 -- Chart
1964 9 18 06 19.4 115.2 996 0 9 -- Chart
1964 9 18 12 19.4 115.1 996 0 9 -- Chart
1964 9 18 18 19.4 115.0 994 0 9 -- Chart
1964 9 19 00 19.4 114.9 990 0 9 -- Chart
1964 9 19 06 19.3 114.5 982 0 9 -- Chart
1964 9 19 12 19.1 114.0 976 0 9 -- Chart
1964 9 19 18 18.9 113.7 970 0 9 -- Chart
1964 9 20 00 18.7 113.3 965 0 9 -- Chart
1964 9 20 06 18.5 112.9 965 0 9 -- Chart
1964 9 20 12 18.2 112.6 965 0 9 -- Chart
1964 9 20 18 17.9 112.4 965 0 9 -- Chart
1964 9 21 00 17.8 112.2 965 0 9 -- Chart
1964 9 21 06 17.3 111.3 970 0 9 -- Chart
1964 9 21 12 17.4 109.9 975 0 9 -- Chart
1964 9 21 18 17.2 109.3 980 0 9 -- Chart
1964 9 22 00 17.1 108.6 990 0 9 -- Chart
1964 9 22 06 17.2 107.6 990 0 9 -- Chart
1964 9 22 12 17.2 106.7 992 0 9 -- Chart
1964 9 22 18 17.1 105.0 996 0 9 -- Chart
1964 9 23 00 17.0 104.3 996 0 9 -- Chart
1964 9 23 06 17.0 103.2 1000 0 2 -- Chart
1964 9 23 12 17.0 102.0 1000 0 2 -- Chart
1964 9 23 18 17.5 100.8 1004 0 2 -- Chart
1964 9 24 00 17.8 100.1 1004 0 2 -- Chart
1964 9 24 06 18.5 99.5 1004 0 2 -- Chart
1964 9 24 12 19.2 98.8 1005 0 2 -- Chart
Japan Meteorological Agency Best Track Data | Correction Date : 1990-10-17
< Typhoon 196418 1964 Season Typhoon 196420 >

Help